sensor_id;sensor_type;location;lat;lon;timestamp;P1;durP1;ratioP1;P2;durP2;ratioP2
9848;SDS011;4963;51.444;6.528;2024-02-15T00:00:32;17.93;;;10.13;;
9848;SDS011;4963;51.444;6.528;2024-02-15T00:02:59;11.37;;;9.23;;
9848;SDS011;4963;51.444;6.528;2024-02-15T00:05:27;12.90;;;9.90;;
9848;SDS011;4963;51.444;6.528;2024-02-15T00:07:54;16.03;;;10.27;;
9848;SDS011;4963;51.444;6.528;2024-02-15T00:10:21;11.77;;;9.27;;
9848;SDS011;4963;51.444;6.528;2024-02-15T00:12:50;15.60;;;9.67;;
9848;SDS011;4963;51.444;6.528;2024-02-15T00:15:17;14.23;;;9.77;;
9848;SDS011;4963;51.444;6.528;2024-02-15T00:17:44;12.33;;;9.50;;
9848;SDS011;4963;51.444;6.528;2024-02-15T00:20:13;15.33;;;9.93;;
9848;SDS011;4963;51.444;6.528;2024-02-15T00:22:41;13.43;;;9.67;;
9848;SDS011;4963;51.444;6.528;2024-02-15T00:25:08;14.83;;;8.97;;
9848;SDS011;4963;51.444;6.528;2024-02-15T00:27:36;16.00;;;9.53;;
9848;SDS011;4963;51.444;6.528;2024-02-15T00:30:03;20.23;;;9.83;;
9848;SDS011;4963;51.444;6.528;2024-02-15T00:32:32;11.47;;;8.70;;
9848;SDS011;4963;51.444;6.528;2024-02-15T00:34:59;15.83;;;9.23;;
9848;SDS011;4963;51.444;6.528;2024-02-15T00:37:26;12.27;;;9.20;;
9848;SDS011;4963;51.444;6.528;2024-02-15T00:39:54;13.30;;;8.80;;
9848;SDS011;4963;51.444;6.528;2024-02-15T00:42:21;10.53;;;8.47;;
9848;SDS011;4963;51.444;6.528;2024-02-15T00:44:48;14.10;;;9.20;;
9848;SDS011;4963;51.444;6.528;2024-02-15T00:47:15;14.87;;;9.37;;
9848;SDS011;4963;51.444;6.528;2024-02-15T00:49:45;14.90;;;10.50;;
9848;SDS011;4963;51.444;6.528;2024-02-15T00:52:12;14.10;;;9.67;;
9848;SDS011;4963;51.444;6.528;2024-02-15T00:54:38;16.67;;;9.93;;
9848;SDS011;4963;51.444;6.528;2024-02-15T00:57:07;15.47;;;9.13;;
9848;SDS011;4963;51.444;6.528;2024-02-15T00:59:34;19.17;;;10.83;;
9848;SDS011;4963;51.444;6.528;2024-02-15T01:02:01;18.57;;;11.30;;
9848;SDS011;4963;51.444;6.528;2024-02-15T01:04:28;25.00;;;11.50;;
9848;SDS011;4963;51.444;6.528;2024-02-15T01:06:56;14.00;;;10.43;;
9848;SDS011;4963;51.444;6.528;2024-02-15T01:09:22;17.07;;;11.10;;
9848;SDS011;4963;51.444;6.528;2024-02-15T01:11:49;18.97;;;11.07;;
9848;SDS011;4963;51.444;6.528;2024-02-15T01:14:18;17.60;;;11.73;;
9848;SDS011;4963;51.444;6.528;2024-02-15T01:16:45;15.10;;;11.00;;
9848;SDS011;4963;51.444;6.528;2024-02-15T01:19:12;15.20;;;11.00;;
9848;SDS011;4963;51.444;6.528;2024-02-15T01:21:39;12.60;;;10.80;;
9848;SDS011;4963;51.444;6.528;2024-02-15T01:24:06;18.00;;;11.33;;
9848;SDS011;4963;51.444;6.528;2024-02-15T01:26:33;15.80;;;11.00;;
9848;SDS011;4963;51.444;6.528;2024-02-15T01:28:59;17.50;;;10.43;;
9848;SDS011;4963;51.444;6.528;2024-02-15T01:31:29;15.43;;;10.67;;
9848;SDS011;4963;51.444;6.528;2024-02-15T01:33:56;16.80;;;11.47;;
9848;SDS011;4963;51.444;6.528;2024-02-15T01:36:23;18.80;;;10.97;;
9848;SDS011;4963;51.444;6.528;2024-02-15T01:38:50;16.03;;;10.27;;
9848;SDS011;4963;51.444;6.528;2024-02-15T01:41:17;20.10;;;10.83;;
9848;SDS011;4963;51.444;6.528;2024-02-15T01:43:44;21.20;;;11.27;;
9848;SDS011;4963;51.444;6.528;2024-02-15T01:46:13;15.87;;;10.23;;
9848;SDS011;4963;51.444;6.528;2024-02-15T01:48:42;17.50;;;11.20;;
9848;SDS011;4963;51.444;6.528;2024-02-15T01:51:10;19.73;;;10.80;;
9848;SDS011;4963;51.444;6.528;2024-02-15T01:53:40;16.63;;;10.60;;
9848;SDS011;4963;51.444;6.528;2024-02-15T01:56:07;19.37;;;10.40;;
9848;SDS011;4963;51.444;6.528;2024-02-15T01:58:34;16.37;;;11.53;;
9848;SDS011;4963;51.444;6.528;2024-02-15T02:01:01;17.90;;;9.47;;
9848;SDS011;4963;51.444;6.528;2024-02-15T02:03:29;16.53;;;9.70;;
9848;SDS011;4963;51.444;6.528;2024-02-15T02:05:57;14.53;;;9.03;;
9848;SDS011;4963;51.444;6.528;2024-02-15T02:08:24;16.83;;;8.83;;
9848;SDS011;4963;51.444;6.528;2024-02-15T02:10:52;19.63;;;8.73;;
9848;SDS011;4963;51.444;6.528;2024-02-15T02:13:19;13.93;;;8.23;;
9848;SDS011;4963;51.444;6.528;2024-02-15T02:15:46;14.17;;;9.00;;
9848;SDS011;4963;51.444;6.528;2024-02-15T02:18:13;15.73;;;8.13;;
9848;SDS011;4963;51.444;6.528;2024-02-15T02:20:39;14.47;;;8.37;;
9848;SDS011;4963;51.444;6.528;2024-02-15T02:23:09;17.37;;;8.60;;
9848;SDS011;4963;51.444;6.528;2024-02-15T02:25:42;12.53;;;8.03;;
9848;SDS011;4963;51.444;6.528;2024-02-15T02:28:14;16.30;;;7.53;;
9848;SDS011;4963;51.444;6.528;2024-02-15T02:30:42;15.97;;;7.60;;
9848;SDS011;4963;51.444;6.528;2024-02-15T02:33:10;15.27;;;7.37;;
9848;SDS011;4963;51.444;6.528;2024-02-15T02:35:42;14.63;;;7.10;;
9848;SDS011;4963;51.444;6.528;2024-02-15T02:38:09;9.83;;;6.20;;
9848;SDS011;4963;51.444;6.528;2024-02-15T02:40:36;11.90;;;6.00;;
9848;SDS011;4963;51.444;6.528;2024-02-15T02:43:05;16.57;;;6.87;;
9848;SDS011;4963;51.444;6.528;2024-02-15T02:45:32;16.03;;;6.53;;
9848;SDS011;4963;51.444;6.528;2024-02-15T02:47:59;9.83;;;6.07;;
9848;SDS011;4963;51.444;6.528;2024-02-15T02:50:25;16.97;;;7.07;;
9848;SDS011;4963;51.444;6.528;2024-02-15T02:52:52;13.77;;;6.23;;
9848;SDS011;4963;51.444;6.528;2024-02-15T02:55:19;11.27;;;5.60;;
9848;SDS011;4963;51.444;6.528;2024-02-15T02:57:46;14.97;;;6.93;;
9848;SDS011;4963;51.444;6.528;2024-02-15T03:00:16;10.80;;;5.87;;
9848;SDS011;4963;51.444;6.528;2024-02-15T03:02:45;17.43;;;6.40;;
9848;SDS011;4963;51.444;6.528;2024-02-15T03:05:12;16.17;;;6.80;;
9848;SDS011;4963;51.444;6.528;2024-02-15T03:07:40;8.50;;;5.87;;
9848;SDS011;4963;51.444;6.528;2024-02-15T03:10:07;9.43;;;5.33;;
9848;SDS011;4963;51.444;6.528;2024-02-15T03:12:38;11.67;;;5.80;;
9848;SDS011;4963;51.444;6.528;2024-02-15T03:15:06;12.97;;;5.53;;
9848;SDS011;4963;51.444;6.528;2024-02-15T03:17:37;9.27;;;5.43;;
9848;SDS011;4963;51.444;6.528;2024-02-15T03:20:05;13.60;;;6.03;;
9848;SDS011;4963;51.444;6.528;2024-02-15T03:22:36;11.33;;;5.53;;
9848;SDS011;4963;51.444;6.528;2024-02-15T03:25:03;11.23;;;5.30;;
9848;SDS011;4963;51.444;6.528;2024-02-15T03:27:32;13.40;;;5.57;;
9848;SDS011;4963;51.444;6.528;2024-02-15T03:30:00;11.03;;;5.30;;
9848;SDS011;4963;51.444;6.528;2024-02-15T03:32:27;12.50;;;5.80;;
9848;SDS011;4963;51.444;6.528;2024-02-15T03:34:55;9.50;;;5.80;;
9848;SDS011;4963;51.444;6.528;2024-02-15T03:37:22;15.70;;;5.77;;
9848;SDS011;4963;51.444;6.528;2024-02-15T03:39:49;11.57;;;5.43;;
9848;SDS011;4963;51.444;6.528;2024-02-15T03:42:16;13.87;;;5.27;;
9848;SDS011;4963;51.444;6.528;2024-02-15T03:44:43;10.70;;;4.80;;
9848;SDS011;4963;51.444;6.528;2024-02-15T03:47:09;10.07;;;4.73;;
9848;SDS011;4963;51.444;6.528;2024-02-15T03:49:38;10.83;;;4.50;;
9848;SDS011;4963;51.444;6.528;2024-02-15T03:52:08;11.00;;;5.17;;
9848;SDS011;4963;51.444;6.528;2024-02-15T03:54:35;12.23;;;5.07;;
9848;SDS011;4963;51.444;6.528;2024-02-15T03:57:02;10.40;;;5.10;;
9848;SDS011;4963;51.444;6.528;2024-02-15T03:59:31;10.30;;;4.90;;
9848;SDS011;4963;51.444;6.528;2024-02-15T04:02:00;8.80;;;4.77;;
9848;SDS011;4963;51.444;6.528;2024-02-15T04:04:28;13.10;;;5.07;;
9848;SDS011;4963;51.444;6.528;2024-02-15T04:06:56;7.77;;;4.53;;
9848;SDS011;4963;51.444;6.528;2024-02-15T04:09:24;11.90;;;5.43;;
9848;SDS011;4963;51.444;6.528;2024-02-15T04:11:51;11.37;;;5.37;;
9848;SDS011;4963;51.444;6.528;2024-02-15T04:14:18;12.63;;;5.40;;
9848;SDS011;4963;51.444;6.528;2024-02-15T04:16:45;14.37;;;5.90;;
9848;SDS011;4963;51.444;6.528;2024-02-15T04:19:12;12.47;;;5.13;;
9848;SDS011;4963;51.444;6.528;2024-02-15T04:21:39;9.90;;;5.33;;
9848;SDS011;4963;51.444;6.528;2024-02-15T04:24:09;11.03;;;5.23;;
9848;SDS011;4963;51.444;6.528;2024-02-15T04:26:37;9.60;;;4.77;;
9848;SDS011;4963;51.444;6.528;2024-02-15T04:29:04;10.80;;;4.87;;
9848;SDS011;4963;51.444;6.528;2024-02-15T04:31:33;13.30;;;5.57;;
9848;SDS011;4963;51.444;6.528;2024-02-15T04:34:05;9.83;;;5.07;;
9848;SDS011;4963;51.444;6.528;2024-02-15T04:36:32;10.57;;;4.97;;
9848;SDS011;4963;51.444;6.528;2024-02-15T04:38:59;10.60;;;4.40;;
9848;SDS011;4963;51.444;6.528;2024-02-15T04:41:27;9.50;;;4.53;;
9848;SDS011;4963;51.444;6.528;2024-02-15T04:43:56;10.93;;;4.20;;
9848;SDS011;4963;51.444;6.528;2024-02-15T04:46:23;8.93;;;4.50;;
9848;SDS011;4963;51.444;6.528;2024-02-15T04:48:50;10.67;;;4.00;;
9848;SDS011;4963;51.444;6.528;2024-02-15T04:51:17;9.43;;;4.50;;
9848;SDS011;4963;51.444;6.528;2024-02-15T04:53:44;12.00;;;4.97;;
9848;SDS011;4963;51.444;6.528;2024-02-15T04:56:12;13.23;;;4.03;;
9848;SDS011;4963;51.444;6.528;2024-02-15T04:58:39;11.17;;;4.47;;
9848;SDS011;4963;51.444;6.528;2024-02-15T05:01:13;11.63;;;4.10;;
9848;SDS011;4963;51.444;6.528;2024-02-15T05:03:41;7.00;;;3.80;;
9848;SDS011;4963;51.444;6.528;2024-02-15T05:06:08;13.33;;;4.20;;
9848;SDS011;4963;51.444;6.528;2024-02-15T05:08:38;8.37;;;3.80;;
9848;SDS011;4963;51.444;6.528;2024-02-15T05:11:07;8.70;;;3.53;;
9848;SDS011;4963;51.444;6.528;2024-02-15T05:13:40;9.93;;;4.40;;
9848;SDS011;4963;51.444;6.528;2024-02-15T05:16:07;6.70;;;3.77;;
9848;SDS011;4963;51.444;6.528;2024-02-15T05:18:35;6.77;;;3.90;;
9848;SDS011;4963;51.444;6.528;2024-02-15T05:21:03;6.77;;;3.90;;
9848;SDS011;4963;51.444;6.528;2024-02-15T05:23:34;9.47;;;4.23;;
9848;SDS011;4963;51.444;6.528;2024-02-15T05:26:01;13.30;;;4.30;;
9848;SDS011;4963;51.444;6.528;2024-02-15T05:28:28;7.57;;;3.53;;
9848;SDS011;4963;51.444;6.528;2024-02-15T05:31:08;10.30;;;3.30;;
9848;SDS011;4963;51.444;6.528;2024-02-15T05:33:38;10.80;;;3.33;;
9848;SDS011;4963;51.444;6.528;2024-02-15T05:36:07;8.97;;;3.80;;
9848;SDS011;4963;51.444;6.528;2024-02-15T05:38:35;9.57;;;4.40;;
9848;SDS011;4963;51.444;6.528;2024-02-15T05:41:02;11.93;;;3.93;;
9848;SDS011;4963;51.444;6.528;2024-02-15T05:43:29;8.37;;;3.60;;
9848;SDS011;4963;51.444;6.528;2024-02-15T05:45:57;9.87;;;3.50;;
9848;SDS011;4963;51.444;6.528;2024-02-15T05:48:25;8.73;;;4.13;;
9848;SDS011;4963;51.444;6.528;2024-02-15T05:50:55;6.47;;;3.57;;
9848;SDS011;4963;51.444;6.528;2024-02-15T05:53:24;11.17;;;3.63;;
9848;SDS011;4963;51.444;6.528;2024-02-15T05:55:51;11.33;;;3.60;;
9848;SDS011;4963;51.444;6.528;2024-02-15T05:58:18;9.47;;;3.40;;
9848;SDS011;4963;51.444;6.528;2024-02-15T06:00:46;8.27;;;4.10;;
9848;SDS011;4963;51.444;6.528;2024-02-15T06:03:14;8.40;;;3.80;;
9848;SDS011;4963;51.444;6.528;2024-02-15T06:05:41;9.27;;;3.60;;
9848;SDS011;4963;51.444;6.528;2024-02-15T06:08:09;7.30;;;3.60;;
9848;SDS011;4963;51.444;6.528;2024-02-15T06:10:37;10.97;;;4.00;;
9848;SDS011;4963;51.444;6.528;2024-02-15T06:13:04;11.00;;;3.80;;
9848;SDS011;4963;51.444;6.528;2024-02-15T06:15:31;8.00;;;3.70;;
9848;SDS011;4963;51.444;6.528;2024-02-15T06:17:58;6.93;;;3.63;;
9848;SDS011;4963;51.444;6.528;2024-02-15T06:20:25;7.53;;;3.60;;
9848;SDS011;4963;51.444;6.528;2024-02-15T06:22:55;11.27;;;4.10;;
9848;SDS011;4963;51.444;6.528;2024-02-15T06:25:23;8.37;;;3.60;;
9848;SDS011;4963;51.444;6.528;2024-02-15T06:27:51;7.77;;;3.60;;
9848;SDS011;4963;51.444;6.528;2024-02-15T06:30:23;9.33;;;4.63;;
9848;SDS011;4963;51.444;6.528;2024-02-15T06:33:07;11.20;;;4.60;;
9848;SDS011;4963;51.444;6.528;2024-02-15T06:36:03;10.03;;;4.20;;
9848;SDS011;4963;51.444;6.528;2024-02-15T06:38:48;4.77;;;3.40;;
9848;SDS011;4963;51.444;6.528;2024-02-15T06:41:34;7.20;;;3.60;;
9848;SDS011;4963;51.444;6.528;2024-02-15T06:44:01;5.77;;;3.00;;
9848;SDS011;4963;51.444;6.528;2024-02-15T06:46:28;7.33;;;3.40;;
9848;SDS011;4963;51.444;6.528;2024-02-15T06:48:55;8.00;;;3.50;;
9848;SDS011;4963;51.444;6.528;2024-02-15T06:51:23;4.67;;;2.80;;
9848;SDS011;4963;51.444;6.528;2024-02-15T06:53:50;9.63;;;3.97;;
9848;SDS011;4963;51.444;6.528;2024-02-15T06:56:20;7.50;;;3.40;;
9848;SDS011;4963;51.444;6.528;2024-02-15T06:58:49;5.13;;;3.40;;
9848;SDS011;4963;51.444;6.528;2024-02-15T07:01:16;10.37;;;4.03;;
9848;SDS011;4963;51.444;6.528;2024-02-15T07:03:43;9.10;;;3.60;;
9848;SDS011;4963;51.444;6.528;2024-02-15T07:06:10;7.70;;;4.17;;
9848;SDS011;4963;51.444;6.528;2024-02-15T07:08:38;8.97;;;3.80;;
9848;SDS011;4963;51.444;6.528;2024-02-15T07:11:06;9.93;;;4.00;;
9848;SDS011;4963;51.444;6.528;2024-02-15T07:13:36;9.20;;;3.93;;
9848;SDS011;4963;51.444;6.528;2024-02-15T07:16:07;7.67;;;3.63;;
9848;SDS011;4963;51.444;6.528;2024-02-15T07:18:34;8.27;;;3.60;;
9848;SDS011;4963;51.444;6.528;2024-02-15T07:21:01;11.23;;;3.90;;
9848;SDS011;4963;51.444;6.528;2024-02-15T07:23:33;10.33;;;3.53;;
9848;SDS011;4963;51.444;6.528;2024-02-15T07:26:01;7.37;;;3.50;;
9848;SDS011;4963;51.444;6.528;2024-02-15T07:28:29;9.17;;;4.40;;
9848;SDS011;4963;51.444;6.528;2024-02-15T07:30:56;13.17;;;4.43;;
9848;SDS011;4963;51.444;6.528;2024-02-15T07:33:24;8.73;;;3.80;;
9848;SDS011;4963;51.444;6.528;2024-02-15T07:35:51;7.10;;;3.60;;
9848;SDS011;4963;51.444;6.528;2024-02-15T07:38:18;6.47;;;3.33;;
9848;SDS011;4963;51.444;6.528;2024-02-15T07:40:47;12.23;;;4.10;;
9848;SDS011;4963;51.444;6.528;2024-02-15T07:43:14;7.83;;;3.43;;
9848;SDS011;4963;51.444;6.528;2024-02-15T07:45:42;8.63;;;3.77;;
9848;SDS011;4963;51.444;6.528;2024-02-15T07:48:08;12.77;;;3.93;;
9848;SDS011;4963;51.444;6.528;2024-02-15T07:50:37;8.20;;;3.87;;
9848;SDS011;4963;51.444;6.528;2024-02-15T07:53:05;9.03;;;4.00;;
9848;SDS011;4963;51.444;6.528;2024-02-15T07:55:33;5.93;;;3.37;;
9848;SDS011;4963;51.444;6.528;2024-02-15T07:58:00;10.53;;;4.10;;
9848;SDS011;4963;51.444;6.528;2024-02-15T08:00:27;9.40;;;3.57;;
9848;SDS011;4963;51.444;6.528;2024-02-15T08:02:55;5.60;;;2.80;;
9848;SDS011;4963;51.444;6.528;2024-02-15T08:05:22;10.23;;;3.47;;
9848;SDS011;4963;51.444;6.528;2024-02-15T08:07:50;6.70;;;3.43;;
9848;SDS011;4963;51.444;6.528;2024-02-15T08:10:22;10.57;;;3.73;;
9848;SDS011;4963;51.444;6.528;2024-02-15T08:12:49;5.33;;;3.60;;
9848;SDS011;4963;51.444;6.528;2024-02-15T08:15:18;10.23;;;3.63;;
9848;SDS011;4963;51.444;6.528;2024-02-15T08:17:45;5.87;;;3.70;;
9848;SDS011;4963;51.444;6.528;2024-02-15T08:20:12;7.67;;;3.33;;
9848;SDS011;4963;51.444;6.528;2024-02-15T08:22:40;8.07;;;3.33;;
9848;SDS011;4963;51.444;6.528;2024-02-15T08:25:10;8.17;;;3.90;;
9848;SDS011;4963;51.444;6.528;2024-02-15T08:27:38;6.37;;;3.67;;
9848;SDS011;4963;51.444;6.528;2024-02-15T08:30:08;7.30;;;3.80;;
9848;SDS011;4963;51.444;6.528;2024-02-15T08:32:36;9.23;;;4.50;;
9848;SDS011;4963;51.444;6.528;2024-02-15T08:35:04;9.10;;;4.50;;
9848;SDS011;4963;51.444;6.528;2024-02-15T08:37:33;11.23;;;4.37;;
9848;SDS011;4963;51.444;6.528;2024-02-15T08:40:00;6.33;;;3.60;;
9848;SDS011;4963;51.444;6.528;2024-02-15T08:42:29;9.30;;;4.60;;
9848;SDS011;4963;51.444;6.528;2024-02-15T08:44:56;9.73;;;4.47;;
9848;SDS011;4963;51.444;6.528;2024-02-15T08:47:24;7.50;;;4.00;;
9848;SDS011;4963;51.444;6.528;2024-02-15T08:49:52;11.53;;;4.10;;
9848;SDS011;4963;51.444;6.528;2024-02-15T08:52:19;7.63;;;4.30;;
9848;SDS011;4963;51.444;6.528;2024-02-15T08:54:46;8.90;;;4.17;;
9848;SDS011;4963;51.444;6.528;2024-02-15T08:57:13;8.40;;;4.07;;
9848;SDS011;4963;51.444;6.528;2024-02-15T08:59:41;8.90;;;3.90;;
9848;SDS011;4963;51.444;6.528;2024-02-15T09:02:08;7.77;;;4.20;;
9848;SDS011;4963;51.444;6.528;2024-02-15T09:04:35;8.67;;;4.20;;
9848;SDS011;4963;51.444;6.528;2024-02-15T09:07:02;10.00;;;4.57;;
9848;SDS011;4963;51.444;6.528;2024-02-15T09:09:29;8.63;;;4.20;;
9848;SDS011;4963;51.444;6.528;2024-02-15T09:12:00;10.60;;;4.43;;
9848;SDS011;4963;51.444;6.528;2024-02-15T09:14:30;12.07;;;4.67;;
9848;SDS011;4963;51.444;6.528;2024-02-15T09:16:59;8.07;;;4.80;;
9848;SDS011;4963;51.444;6.528;2024-02-15T09:19:26;9.87;;;4.60;;
9848;SDS011;4963;51.444;6.528;2024-02-15T09:21:53;7.93;;;4.20;;
9848;SDS011;4963;51.444;6.528;2024-02-15T09:24:20;11.73;;;5.00;;
9848;SDS011;4963;51.444;6.528;2024-02-15T09:26:50;13.07;;;4.43;;
9848;SDS011;4963;51.444;6.528;2024-02-15T09:29:17;9.07;;;4.87;;
9848;SDS011;4963;51.444;6.528;2024-02-15T09:31:44;12.53;;;5.80;;
9848;SDS011;4963;51.444;6.528;2024-02-15T09:34:14;9.20;;;5.10;;
9848;SDS011;4963;51.444;6.528;2024-02-15T09:36:41;12.03;;;4.93;;
9848;SDS011;4963;51.444;6.528;2024-02-15T09:39:08;9.70;;;5.60;;
9848;SDS011;4963;51.444;6.528;2024-02-15T09:41:35;11.33;;;5.03;;
9848;SDS011;4963;51.444;6.528;2024-02-15T09:44:02;10.53;;;4.90;;
9848;SDS011;4963;51.444;6.528;2024-02-15T09:46:29;12.23;;;5.63;;
9848;SDS011;4963;51.444;6.528;2024-02-15T09:48:59;16.30;;;6.40;;
9848;SDS011;4963;51.444;6.528;2024-02-15T09:51:29;12.23;;;5.40;;
9848;SDS011;4963;51.444;6.528;2024-02-15T09:53:59;12.93;;;5.50;;
9848;SDS011;4963;51.444;6.528;2024-02-15T09:56:27;8.40;;;5.27;;
9848;SDS011;4963;51.444;6.528;2024-02-15T09:58:58;13.83;;;5.27;;
9848;SDS011;4963;51.444;6.528;2024-02-15T10:01:25;12.10;;;5.10;;
9848;SDS011;4963;51.444;6.528;2024-02-15T10:03:57;10.27;;;4.93;;
9848;SDS011;4963;51.444;6.528;2024-02-15T10:06:26;7.67;;;4.40;;
9848;SDS011;4963;51.444;6.528;2024-02-15T10:08:54;15.83;;;5.37;;
9848;SDS011;4963;51.444;6.528;2024-02-15T10:11:55;8.17;;;3.70;;
9848;SDS011;4963;51.444;6.528;2024-02-15T10:14:23;8.83;;;4.03;;
9848;SDS011;4963;51.444;6.528;2024-02-15T10:16:52;8.93;;;4.43;;
9848;SDS011;4963;51.444;6.528;2024-02-15T10:19:19;10.17;;;4.23;;
9848;SDS011;4963;51.444;6.528;2024-02-15T10:21:50;9.87;;;4.17;;
9848;SDS011;4963;51.444;6.528;2024-02-15T10:24:22;8.27;;;4.13;;
9848;SDS011;4963;51.444;6.528;2024-02-15T10:26:50;8.93;;;4.23;;
9848;SDS011;4963;51.444;6.528;2024-02-15T10:29:18;8.90;;;4.23;;
9848;SDS011;4963;51.444;6.528;2024-02-15T10:31:52;8.97;;;3.73;;
9848;SDS011;4963;51.444;6.528;2024-02-15T10:34:20;6.37;;;3.77;;
9848;SDS011;4963;51.444;6.528;2024-02-15T10:36:48;8.13;;;3.67;;
9848;SDS011;4963;51.444;6.528;2024-02-15T10:39:15;6.47;;;3.60;;
9848;SDS011;4963;51.444;6.528;2024-02-15T10:41:46;6.70;;;4.00;;
9848;SDS011;4963;51.444;6.528;2024-02-15T10:44:15;9.97;;;4.00;;
9848;SDS011;4963;51.444;6.528;2024-02-15T10:46:44;8.53;;;3.50;;
9848;SDS011;4963;51.444;6.528;2024-02-15T10:49:16;10.77;;;3.67;;
9848;SDS011;4963;51.444;6.528;2024-02-15T10:51:45;9.13;;;3.67;;
9848;SDS011;4963;51.444;6.528;2024-02-15T10:54:32;7.80;;;3.43;;
9848;SDS011;4963;51.444;6.528;2024-02-15T10:57:08;9.07;;;3.70;;
9848;SDS011;4963;51.444;6.528;2024-02-15T10:59:38;7.60;;;3.13;;
9848;SDS011;4963;51.444;6.528;2024-02-15T11:02:13;6.17;;;3.23;;
9848;SDS011;4963;51.444;6.528;2024-02-15T11:04:52;9.13;;;3.33;;
9848;SDS011;4963;51.444;6.528;2024-02-15T11:07:23;5.00;;;2.70;;
9848;SDS011;4963;51.444;6.528;2024-02-15T11:09:51;6.93;;;3.10;;
9848;SDS011;4963;51.444;6.528;2024-02-15T11:12:20;6.80;;;3.03;;
9848;SDS011;4963;51.444;6.528;2024-02-15T11:14:48;7.03;;;3.13;;
9848;SDS011;4963;51.444;6.528;2024-02-15T11:23:24;7.13;;;3.07;;
9848;SDS011;4963;51.444;6.528;2024-02-15T11:25:53;8.13;;;3.13;;
9848;SDS011;4963;51.444;6.528;2024-02-15T11:28:38;8.60;;;3.23;;
9848;SDS011;4963;51.444;6.528;2024-02-15T11:31:11;7.73;;;2.90;;
9848;SDS011;4963;51.444;6.528;2024-02-15T11:40:18;6.77;;;2.87;;
9848;SDS011;4963;51.444;6.528;2024-02-15T11:42:48;4.67;;;3.00;;
9848;SDS011;4963;51.444;6.528;2024-02-15T11:45:17;9.47;;;3.03;;
9848;SDS011;4963;51.444;6.528;2024-02-15T11:47:47;4.20;;;2.47;;
9848;SDS011;4963;51.444;6.528;2024-02-15T11:50:15;6.07;;;2.93;;
9848;SDS011;4963;51.444;6.528;2024-02-15T11:52:43;7.83;;;2.67;;
9848;SDS011;4963;51.444;6.528;2024-02-15T11:55:11;5.60;;;2.70;;
9848;SDS011;4963;51.444;6.528;2024-02-15T11:57:38;7.13;;;2.47;;
9848;SDS011;4963;51.444;6.528;2024-02-15T12:00:21;7.10;;;2.80;;
9848;SDS011;4963;51.444;6.528;2024-02-15T12:03:06;5.60;;;2.45;;
9848;SDS011;4963;51.444;6.528;2024-02-15T12:05:50;7.77;;;2.53;;
9848;SDS011;4963;51.444;6.528;2024-02-15T12:08:35;7.67;;;3.10;;
9848;SDS011;4963;51.444;6.528;2024-02-15T12:11:19;6.47;;;2.50;;
9848;SDS011;4963;51.444;6.528;2024-02-15T12:14:04;4.67;;;2.37;;
9848;SDS011;4963;51.444;6.528;2024-02-15T12:16:59;4.10;;;2.33;;
9848;SDS011;4963;51.444;6.528;2024-02-15T12:19:44;5.68;;;2.22;;
9848;SDS011;4963;51.444;6.528;2024-02-15T12:22:13;6.63;;;2.47;;
9848;SDS011;4963;51.444;6.528;2024-02-15T12:24:40;7.53;;;2.50;;
9848;SDS011;4963;51.444;6.528;2024-02-15T12:27:07;6.35;;;2.40;;
9848;SDS011;4963;51.444;6.528;2024-02-15T12:29:35;5.53;;;2.50;;
9848;SDS011;4963;51.444;6.528;2024-02-15T12:32:03;5.18;;;2.13;;
9848;SDS011;4963;51.444;6.528;2024-02-15T12:34:30;4.72;;;2.08;;
9848;SDS011;4963;51.444;6.528;2024-02-15T12:37:06;5.75;;;2.30;;
9848;SDS011;4963;51.444;6.528;2024-02-15T12:39:34;7.95;;;2.25;;
9848;SDS011;4963;51.444;6.528;2024-02-15T12:42:02;5.57;;;2.35;;
9848;SDS011;4963;51.444;6.528;2024-02-15T12:44:29;5.68;;;2.55;;
9848;SDS011;4963;51.444;6.528;2024-02-15T12:46:58;4.25;;;2.50;;
9848;SDS011;4963;51.444;6.528;2024-02-15T12:49:29;4.80;;;2.28;;
9848;SDS011;4963;51.444;6.528;2024-02-15T12:55:08;5.53;;;2.30;;
9848;SDS011;4963;51.444;6.528;2024-02-15T12:57:37;6.82;;;2.10;;
9848;SDS011;4963;51.444;6.528;2024-02-15T13:00:06;6.00;;;2.45;;
9848;SDS011;4963;51.444;6.528;2024-02-15T13:02:39;6.10;;;2.13;;
9848;SDS011;4963;51.444;6.528;2024-02-15T13:05:08;7.30;;;2.33;;
9848;SDS011;4963;51.444;6.528;2024-02-15T13:07:35;4.35;;;2.63;;
9848;SDS011;4963;51.444;6.528;2024-02-15T13:10:03;6.47;;;2.03;;
9848;SDS011;4963;51.444;6.528;2024-02-15T13:12:32;5.72;;;2.10;;
9848;SDS011;4963;51.444;6.528;2024-02-15T13:15:01;2.90;;;1.70;;
9848;SDS011;4963;51.444;6.528;2024-02-15T13:17:30;3.28;;;1.85;;
9848;SDS011;4963;51.444;6.528;2024-02-15T13:19:58;5.38;;;2.22;;
9848;SDS011;4963;51.444;6.528;2024-02-15T13:22:31;5.35;;;2.50;;
9848;SDS011;4963;51.444;6.528;2024-02-15T13:24:59;5.65;;;2.13;;
9848;SDS011;4963;51.444;6.528;2024-02-15T13:27:28;2.67;;;1.50;;
9848;SDS011;4963;51.444;6.528;2024-02-15T13:29:55;6.38;;;2.17;;
9848;SDS011;4963;51.444;6.528;2024-02-15T13:32:23;7.32;;;2.10;;
9848;SDS011;4963;51.444;6.528;2024-02-15T13:34:50;3.55;;;1.63;;
9848;SDS011;4963;51.444;6.528;2024-02-15T13:37:21;5.57;;;1.90;;
9848;SDS011;4963;51.444;6.528;2024-02-15T13:39:50;4.50;;;2.17;;
9848;SDS011;4963;51.444;6.528;2024-02-15T13:42:17;5.00;;;2.10;;
9848;SDS011;4963;51.444;6.528;2024-02-15T13:44:44;3.90;;;1.58;;
9848;SDS011;4963;51.444;6.528;2024-02-15T13:47:12;4.30;;;2.03;;
9848;SDS011;4963;51.444;6.528;2024-02-15T13:49:41;4.88;;;2.10;;
9848;SDS011;4963;51.444;6.528;2024-02-15T13:52:08;5.25;;;1.95;;
9848;SDS011;4963;51.444;6.528;2024-02-15T13:54:36;4.47;;;2.13;;
9848;SDS011;4963;51.444;6.528;2024-02-15T13:57:04;5.55;;;2.05;;
9848;SDS011;4963;51.444;6.528;2024-02-15T13:59:32;5.63;;;1.92;;
9848;SDS011;4963;51.444;6.528;2024-02-15T14:01:59;4.45;;;1.92;;
9848;SDS011;4963;51.444;6.528;2024-02-15T14:04:29;3.30;;;1.63;;
9848;SDS011;4963;51.444;6.528;2024-02-15T14:06:57;6.15;;;1.90;;
9848;SDS011;4963;51.444;6.528;2024-02-15T14:09:25;4.03;;;1.80;;
9848;SDS011;4963;51.444;6.528;2024-02-15T14:11:53;3.97;;;1.77;;
9848;SDS011;4963;51.444;6.528;2024-02-15T14:14:22;6.00;;;2.38;;
9848;SDS011;4963;51.444;6.528;2024-02-15T14:16:50;3.40;;;1.90;;
9848;SDS011;4963;51.444;6.528;2024-02-15T14:19:17;4.78;;;1.70;;
9848;SDS011;4963;51.444;6.528;2024-02-15T14:21:46;3.47;;;1.77;;
9848;SDS011;4963;51.444;6.528;2024-02-15T14:24:13;6.45;;;2.10;;
9848;SDS011;4963;51.444;6.528;2024-02-15T14:26:40;3.65;;;1.83;;
9848;SDS011;4963;51.444;6.528;2024-02-15T14:29:07;4.10;;;1.60;;
9848;SDS011;4963;51.444;6.528;2024-02-15T14:31:36;10.05;;;2.13;;
9848;SDS011;4963;51.444;6.528;2024-02-15T14:34:20;5.35;;;1.83;;
9848;SDS011;4963;51.444;6.528;2024-02-15T14:36:50;3.05;;;1.70;;
9848;SDS011;4963;51.444;6.528;2024-02-15T14:39:16;11.10;;;2.28;;
9848;SDS011;4963;51.444;6.528;2024-02-15T14:41:44;5.32;;;2.20;;
9848;SDS011;4963;51.444;6.528;2024-02-15T14:44:11;6.43;;;2.72;;
9848;SDS011;4963;51.444;6.528;2024-02-15T14:46:40;5.55;;;2.30;;
9848;SDS011;4963;51.444;6.528;2024-02-15T14:49:07;4.18;;;2.17;;
9848;SDS011;4963;51.444;6.528;2024-02-15T14:51:34;4.63;;;1.98;;
9848;SDS011;4963;51.444;6.528;2024-02-15T14:54:04;3.78;;;1.83;;
9848;SDS011;4963;51.444;6.528;2024-02-15T14:56:31;6.13;;;2.08;;
9848;SDS011;4963;51.444;6.528;2024-02-15T14:58:58;5.60;;;1.83;;
9848;SDS011;4963;51.444;6.528;2024-02-15T15:01:26;3.53;;;1.75;;
9848;SDS011;4963;51.444;6.528;2024-02-15T15:03:55;5.50;;;1.80;;
9848;SDS011;4963;51.444;6.528;2024-02-15T15:06:23;7.55;;;2.38;;
9848;SDS011;4963;51.444;6.528;2024-02-15T15:09:08;4.78;;;2.13;;
9848;SDS011;4963;51.444;6.528;2024-02-15T15:11:54;6.38;;;2.10;;
9848;SDS011;4963;51.444;6.528;2024-02-15T15:14:39;6.18;;;2.05;;
9848;SDS011;4963;51.444;6.528;2024-02-15T15:17:06;7.20;;;2.10;;
9848;SDS011;4963;51.444;6.528;2024-02-15T15:19:36;7.55;;;2.22;;
9848;SDS011;4963;51.444;6.528;2024-02-15T15:22:03;5.78;;;2.22;;
9848;SDS011;4963;51.444;6.528;2024-02-15T15:24:32;6.72;;;2.65;;
9848;SDS011;4963;51.444;6.528;2024-02-15T15:26:59;4.95;;;1.85;;
9848;SDS011;4963;51.444;6.528;2024-02-15T15:29:26;5.60;;;2.22;;
9848;SDS011;4963;51.444;6.528;2024-02-15T15:31:55;5.13;;;2.13;;
9848;SDS011;4963;51.444;6.528;2024-02-15T15:34:23;3.83;;;2.30;;